sensor_id;sensor_type;location;lat;lon;timestamp;pressure;altitude;pressure_sealevel;temperature;humidity
84413;BME280;74611;53.106;8.778;2024-03-02T00:00:16;100526.44;;;6.13;85.39
84413;BME280;74611;53.106;8.778;2024-03-02T00:02:45;100530.91;;;6.13;85.29
84413;BME280;74611;53.106;8.778;2024-03-02T00:05:13;100519.59;;;6.11;85.32
84413;BME280;74611;53.106;8.778;2024-03-02T00:07:44;100516.41;;;6.07;85.46
84413;BME280;74611;53.106;8.778;2024-03-02T00:10:11;100524.41;;;6.07;85.08
84413;BME280;74611;53.106;8.778;2024-03-02T00:12:40;100517.91;;;6.01;85.47
84413;BME280;74611;53.106;8.778;2024-03-02T00:18:11;100520.09;;;5.98;85.42
84413;BME280;74611;53.106;8.778;2024-03-02T00:20:38;100528.22;;;5.96;85.96
84413;BME280;74611;53.106;8.778;2024-03-02T00:23:09;100515.75;;;5.97;85.61
84413;BME280;74611;53.106;8.778;2024-03-02T00:25:41;100525.53;;;5.96;85.50
84413;BME280;74611;53.106;8.778;2024-03-02T00:28:26;100515.25;;;5.93;85.95
84413;BME280;74611;53.106;8.778;2024-03-02T00:31:05;100525.06;;;5.93;85.80
84413;BME280;74611;53.106;8.778;2024-03-02T00:33:35;100523.38;;;5.92;86.11
84413;BME280;74611;53.106;8.778;2024-03-02T00:36:02;100512.22;;;5.88;85.30
84413;BME280;74611;53.106;8.778;2024-03-02T00:38:29;100508.56;;;5.89;86.13
84413;BME280;74611;53.106;8.778;2024-03-02T00:40:57;100503.41;;;5.88;86.62
84413;BME280;74611;53.106;8.778;2024-03-02T00:43:43;100505.91;;;5.89;85.13
84413;BME280;74611;53.106;8.778;2024-03-02T00:46:11;100503.41;;;5.88;85.42
84413;BME280;74611;53.106;8.778;2024-03-02T00:48:39;100496.75;;;5.84;85.42
84413;BME280;74611;53.106;8.778;2024-03-02T00:51:08;100496.75;;;5.84;86.08
84413;BME280;74611;53.106;8.778;2024-03-02T00:53:34;100502.22;;;5.82;85.72
84413;BME280;74611;53.106;8.778;2024-03-02T00:56:01;100496.72;;;5.76;85.20
84413;BME280;74611;53.106;8.778;2024-03-02T00:58:27;100499.38;;;5.76;85.82
84413;BME280;74611;53.106;8.778;2024-03-02T01:00:52;100500.19;;;5.76;85.95
84413;BME280;74611;53.106;8.778;2024-03-02T01:03:18;100506.81;;;5.72;86.13
84413;BME280;74611;53.106;8.778;2024-03-02T01:05:44;100490.06;;;5.72;85.40
84413;BME280;74611;53.106;8.778;2024-03-02T01:08:10;100489.38;;;5.70;86.07
84413;BME280;74611;53.106;8.778;2024-03-02T01:10:36;100484.06;;;5.70;85.58
84413;BME280;74611;53.106;8.778;2024-03-02T01:13:02;100484.22;;;5.68;85.80
84413;BME280;74611;53.106;8.778;2024-03-02T01:15:27;100493.03;;;5.69;85.07
84413;BME280;74611;53.106;8.778;2024-03-02T01:17:53;100488.69;;;5.68;84.90
84413;BME280;74611;53.106;8.778;2024-03-02T01:20:18;100486.03;;;5.68;85.83
84413;BME280;74611;53.106;8.778;2024-03-02T01:22:44;100491.84;;;5.63;85.33
84413;BME280;74611;53.106;8.778;2024-03-02T01:25:10;100478.22;;;5.66;85.57
84413;BME280;74611;53.106;8.778;2024-03-02T01:27:35;100482.88;;;5.64;84.86
84413;BME280;74611;53.106;8.778;2024-03-02T01:30:01;100477.06;;;5.61;86.00
84413;BME280;74611;53.106;8.778;2024-03-02T01:32:26;100481.69;;;5.59;85.81
84413;BME280;74611;53.106;8.778;2024-03-02T01:34:52;100480.88;;;5.58;85.65
84413;BME280;74611;53.106;8.778;2024-03-02T01:37:17;100480.03;;;5.58;86.13
84413;BME280;74611;53.106;8.778;2024-03-02T01:39:43;100476.69;;;5.56;85.78
84413;BME280;74611;53.106;8.778;2024-03-02T01:42:09;100471.00;;;5.51;85.37
84413;BME280;74611;53.106;8.778;2024-03-02T01:44:36;100469.03;;;5.53;85.71
84413;BME280;74611;53.106;8.778;2024-03-02T01:47:01;100474.22;;;5.54;85.15
84413;BME280;74611;53.106;8.778;2024-03-02T01:49:27;100465.38;;;5.54;85.20
84413;BME280;74611;53.106;8.778;2024-03-02T01:51:52;100460.06;;;5.46;85.85
84413;BME280;74611;53.106;8.778;2024-03-02T01:54:18;100458.53;;;5.43;86.10
84413;BME280;74611;53.106;8.778;2024-03-02T01:56:44;100460.38;;;5.43;86.17
84413;BME280;74611;53.106;8.778;2024-03-02T01:59:10;100454.06;;;5.44;85.90
84413;BME280;74611;53.106;8.778;2024-03-02T02:01:38;100464.16;;;5.40;86.31
84413;BME280;74611;53.106;8.778;2024-03-02T02:04:03;100461.88;;;5.45;85.08
84413;BME280;74611;53.106;8.778;2024-03-02T02:06:29;100464.34;;;5.39;85.79
84413;BME280;74611;53.106;8.778;2024-03-02T02:08:54;100450.50;;;5.35;86.44
84413;BME280;74611;53.106;8.778;2024-03-02T02:11:20;100447.34;;;5.31;86.29
84413;BME280;74611;53.106;8.778;2024-03-02T02:13:46;100450.00;;;5.31;86.52
84413;BME280;74611;53.106;8.778;2024-03-02T02:16:11;100443.06;;;5.30;86.42
84413;BME280;74611;53.106;8.778;2024-03-02T02:18:37;100436.91;;;5.30;86.87
84413;BME280;74611;53.106;8.778;2024-03-02T02:21:03;100437.03;;;5.28;86.21
84413;BME280;74611;53.106;8.778;2024-03-02T02:23:28;100437.03;;;5.28;86.11
84413;BME280;74611;53.106;8.778;2024-03-02T02:25:54;100435.75;;;5.32;85.90
84413;BME280;74611;53.106;8.778;2024-03-02T02:28:20;100443.66;;;5.24;85.72
84413;BME280;74611;53.106;8.778;2024-03-02T02:30:45;100438.22;;;5.26;85.96
84413;BME280;74611;53.106;8.778;2024-03-02T02:33:11;100434.72;;;5.25;86.18
84413;BME280;74611;53.106;8.778;2024-03-02T02:35:37;100436.03;;;5.21;86.28
84413;BME280;74611;53.106;8.778;2024-03-02T02:38:03;100431.88;;;5.19;85.74
84413;BME280;74611;53.106;8.778;2024-03-02T02:40:28;100428.19;;;5.20;86.22
84413;BME280;74611;53.106;8.778;2024-03-02T02:42:57;100429.50;;;5.16;86.21
84413;BME280;74611;53.106;8.778;2024-03-02T02:45:24;100428.84;;;5.14;86.78
84413;BME280;74611;53.106;8.778;2024-03-02T02:47:50;100436.16;;;5.12;86.38
84413;BME280;74611;53.106;8.778;2024-03-02T02:50:15;100422.88;;;5.12;86.74
84413;BME280;74611;53.106;8.778;2024-03-02T02:52:42;100420.38;;;5.10;86.07
84413;BME280;74611;53.106;8.778;2024-03-02T02:55:12;100420.38;;;5.10;86.53
84413;BME280;74611;53.106;8.778;2024-03-02T02:57:41;100415.38;;;5.07;86.43
84413;BME280;74611;53.106;8.778;2024-03-02T03:00:09;100412.56;;;5.09;86.49
84413;BME280;74611;53.106;8.778;2024-03-02T03:02:39;100411.72;;;5.08;87.27
84413;BME280;74611;53.106;8.778;2024-03-02T03:05:07;100410.06;;;5.07;86.40
84413;BME280;74611;53.106;8.778;2024-03-02T03:07:33;100407.56;;;5.06;86.56
84413;BME280;74611;53.106;8.778;2024-03-02T03:10:00;100411.38;;;5.03;87.24
84413;BME280;74611;53.106;8.778;2024-03-02T03:12:26;100409.56;;;5.04;86.92
84413;BME280;74611;53.106;8.778;2024-03-02T03:14:51;100404.25;;;5.04;87.16
84413;BME280;74611;53.106;8.778;2024-03-02T03:17:17;100402.56;;;5.03;86.83
84413;BME280;74611;53.106;8.778;2024-03-02T03:19:43;100401.88;;;5.01;87.09
84413;BME280;74611;53.106;8.778;2024-03-02T03:22:09;100404.72;;;4.99;87.30
84413;BME280;74611;53.106;8.778;2024-03-02T03:24:34;100402.91;;;5.00;86.63
84413;BME280;74611;53.106;8.778;2024-03-02T03:27:00;100394.25;;;4.98;87.40
84413;BME280;74611;53.106;8.778;2024-03-02T03:29:26;100393.41;;;4.97;86.37
84413;BME280;74611;53.106;8.778;2024-03-02T03:31:51;100397.72;;;4.98;87.25
84413;BME280;74611;53.106;8.778;2024-03-02T03:34:17;100395.22;;;4.97;86.91
84413;BME280;74611;53.106;8.778;2024-03-02T03:36:42;100394.72;;;4.93;86.99
84413;BME280;74611;53.106;8.778;2024-03-02T03:39:08;100385.63;;;4.96;86.51
84413;BME280;74611;53.106;8.778;2024-03-02T03:41:34;100386.44;;;4.96;87.58
84413;BME280;74611;53.106;8.778;2024-03-02T03:43:59;100391.91;;;4.95;86.69
84413;BME280;74611;53.106;8.778;2024-03-02T03:46:25;100392.06;;;4.93;87.23
84413;BME280;74611;53.106;8.778;2024-03-02T03:48:50;100386.59;;;4.95;87.49
84413;BME280;74611;53.106;8.778;2024-03-02T03:51:16;100386.22;;;4.90;86.98
84413;BME280;74611;53.106;8.778;2024-03-02T03:53:41;100388.75;;;4.91;87.06
84413;BME280;74611;53.106;8.778;2024-03-02T03:56:07;100389.72;;;4.90;87.21
84413;BME280;74611;53.106;8.778;2024-03-02T03:58:32;100384.41;;;4.90;87.10
84413;BME280;74611;53.106;8.778;2024-03-02T04:00:58;100390.56;;;4.91;87.25
84413;BME280;74611;53.106;8.778;2024-03-02T04:03:23;100377.66;;;4.96;88.10
84413;BME280;74611;53.106;8.778;2024-03-02T04:05:49;100390.72;;;4.89;86.85
84413;BME280;74611;53.106;8.778;2024-03-02T04:08:15;100385.09;;;4.92;86.87
84413;BME280;74611;53.106;8.778;2024-03-02T04:10:41;100377.28;;;4.91;87.79
84413;BME280;74611;53.106;8.778;2024-03-02T04:13:07;100377.66;;;4.96;87.75
84413;BME280;74611;53.106;8.778;2024-03-02T04:15:33;100377.44;;;4.89;87.39
84413;BME280;74611;53.106;8.778;2024-03-02T04:17:58;100367.63;;;4.90;87.07
84413;BME280;74611;53.106;8.778;2024-03-02T04:20:24;100369.50;;;4.89;87.43
84413;BME280;74611;53.106;8.778;2024-03-02T04:22:50;100370.28;;;4.90;86.26
84413;BME280;74611;53.106;8.778;2024-03-02T04:25:16;100366.97;;;4.88;87.07
84413;BME280;74611;53.106;8.778;2024-03-02T04:27:41;100375.78;;;4.88;86.48
84413;BME280;74611;53.106;8.778;2024-03-02T04:30:07;100372.44;;;4.86;87.13
84413;BME280;74611;53.106;8.778;2024-03-02T04:32:33;100381.59;;;4.92;88.02
84413;BME280;74611;53.106;8.778;2024-03-02T04:34:59;100398.59;;;5.07;87.09
84413;BME280;74611;53.106;8.778;2024-03-02T04:37:24;100403.03;;;4.98;87.18
84413;BME280;74611;53.106;8.778;2024-03-02T04:39:50;100403.56;;;5.02;87.05
84413;BME280;74611;53.106;8.778;2024-03-02T04:42:15;100403.88;;;4.99;87.29
84413;BME280;74611;53.106;8.778;2024-03-02T04:44:41;100408.50;;;4.97;86.81
84413;BME280;74611;53.106;8.778;2024-03-02T04:47:06;100409.03;;;5.00;87.35
84413;BME280;74611;53.106;8.778;2024-03-02T04:49:32;100415.50;;;4.98;86.55
84413;BME280;74611;53.106;8.778;2024-03-02T04:51:58;100413.31;;;4.93;87.26
84413;BME280;74611;53.106;8.778;2024-03-02T04:54:23;100416.28;;;4.90;87.35
84413;BME280;74611;53.106;8.778;2024-03-02T04:56:49;100408.78;;;4.86;87.89
84413;BME280;74611;53.106;8.778;2024-03-02T04:59:18;100414.97;;;4.94;87.96
84413;BME280;74611;53.106;8.778;2024-03-02T05:01:44;100414.63;;;4.89;86.77
84413;BME280;74611;53.106;8.778;2024-03-02T05:04:10;100415.16;;;4.93;87.91
84413;BME280;74611;53.106;8.778;2024-03-02T05:06:40;100417.44;;;4.88;86.47
84413;BME280;74611;53.106;8.778;2024-03-02T05:09:07;100415.25;;;4.83;86.61
84413;BME280;74611;53.106;8.778;2024-03-02T05:11:32;100419.41;;;4.86;86.92
84413;BME280;74611;53.106;8.778;2024-03-02T05:14:07;100416.38;;;4.81;86.94
84413;BME280;74611;53.106;8.778;2024-03-02T05:16:35;100419.38;;;4.78;87.07
84413;BME280;74611;53.106;8.778;2024-03-02T05:19:05;100417.28;;;4.89;87.91
84413;BME280;74611;53.106;8.778;2024-03-02T05:21:32;100416.47;;;4.89;86.82
84413;BME280;74611;53.106;8.778;2024-03-02T05:23:57;100415.25;;;4.83;87.60
84413;BME280;74611;53.106;8.778;2024-03-02T05:26:23;100411.59;;;4.76;87.38
84413;BME280;74611;53.106;8.778;2024-03-02T05:28:48;100406.94;;;4.78;87.36
84413;BME280;74611;53.106;8.778;2024-03-02T05:31:17;100412.94;;;4.80;87.77
84413;BME280;74611;53.106;8.778;2024-03-02T05:33:43;100413.06;;;4.79;87.42
84413;BME280;74611;53.106;8.778;2024-03-02T05:36:09;100413.44;;;4.84;87.78
84413;BME280;74611;53.106;8.778;2024-03-02T05:38:34;100422.53;;;4.81;86.66
84413;BME280;74611;53.106;8.778;2024-03-02T05:41:00;100421.88;;;4.79;87.80
84413;BME280;74611;53.106;8.778;2024-03-02T05:43:26;100423.56;;;4.80;88.36
84413;BME280;74611;53.106;8.778;2024-03-02T05:45:51;100420.34;;;4.77;87.29
84413;BME280;74611;53.106;8.778;2024-03-02T05:48:17;100430.69;;;4.80;87.67
84413;BME280;74611;53.106;8.778;2024-03-02T05:50:42;100425.34;;;4.72;86.99
84413;BME280;74611;53.106;8.778;2024-03-02T05:53:07;100432.13;;;4.74;88.32
84413;BME280;74611;53.106;8.778;2024-03-02T05:55:34;100441.09;;;4.73;87.92
84413;BME280;74611;53.106;8.778;2024-03-02T05:57:59;100441.09;;;4.73;87.68
84413;BME280;74611;53.106;8.778;2024-03-02T06:00:31;100437.09;;;4.69;87.34
84413;BME280;74611;53.106;8.778;2024-03-02T06:02:56;100441.56;;;4.69;88.10
84413;BME280;74611;53.106;8.778;2024-03-02T06:05:22;100438.53;;;4.64;87.26
84413;BME280;74611;53.106;8.778;2024-03-02T06:07:48;100440.88;;;4.67;88.80
84413;BME280;74611;53.106;8.778;2024-03-02T06:10:13;100434.75;;;4.66;87.99
84413;BME280;74611;53.106;8.778;2024-03-02T06:12:39;100441.53;;;4.61;88.22
84413;BME280;74611;53.106;8.778;2024-03-02T06:15:05;100446.03;;;4.68;88.91
84413;BME280;74611;53.106;8.778;2024-03-02T06:17:31;100444.19;;;4.61;88.28
84413;BME280;74611;53.106;8.778;2024-03-02T06:19:57;100446.84;;;4.61;87.33
84413;BME280;74611;53.106;8.778;2024-03-02T06:22:22;100444.84;;;4.63;88.26
84413;BME280;74611;53.106;8.778;2024-03-02T06:24:50;100452.59;;;4.56;88.14
84413;BME280;74611;53.106;8.778;2024-03-02T06:27:16;100456.44;;;4.62;89.03
84413;BME280;74611;53.106;8.778;2024-03-02T06:29:42;100449.63;;;4.59;87.47
84413;BME280;74611;53.106;8.778;2024-03-02T06:32:07;100451.13;;;4.62;88.57
84413;BME280;74611;53.106;8.778;2024-03-02T06:34:33;100456.44;;;4.62;88.73
84413;BME280;74611;53.106;8.778;2024-03-02T06:36:58;100455.47;;;4.63;88.19
84413;BME280;74611;53.106;8.778;2024-03-02T06:39:24;100458.13;;;4.63;88.34
84413;BME280;74611;53.106;8.778;2024-03-02T06:41:51;100452.94;;;4.61;89.46
84413;BME280;74611;53.106;8.778;2024-03-02T06:44:16;100456.53;;;4.70;88.31
84413;BME280;74611;53.106;8.778;2024-03-02T06:46:42;100459.63;;;4.65;88.75
84413;BME280;74611;53.106;8.778;2024-03-02T06:49:07;100461.63;;;4.63;88.29
84413;BME280;74611;53.106;8.778;2024-03-02T06:51:34;100462.13;;;4.67;88.82
84413;BME280;74611;53.106;8.778;2024-03-02T06:54:00;100457.31;;;4.70;88.65
84413;BME280;74611;53.106;8.778;2024-03-02T06:56:26;100462.50;;;4.72;87.78
84413;BME280;74611;53.106;8.778;2024-03-02T06:58:51;100464.53;;;4.78;88.69
84413;BME280;74611;53.106;8.778;2024-03-02T07:01:17;100467.34;;;4.76;87.90
84413;BME280;74611;53.106;8.778;2024-03-02T07:03:43;100477.97;;;4.76;87.98
84413;BME280;74611;53.106;8.778;2024-03-02T07:06:09;100473.63;;;4.75;87.88
84413;BME280;74611;53.106;8.778;2024-03-02T07:08:35;100476.97;;;4.77;88.17
84413;BME280;74611;53.106;8.778;2024-03-02T07:11:00;100478.09;;;4.75;87.47
84413;BME280;74611;53.106;8.778;2024-03-02T07:13:26;100481.19;;;4.88;87.73
84413;BME280;74611;53.106;8.778;2024-03-02T07:15:52;100484.69;;;4.88;88.13
84413;BME280;74611;53.106;8.778;2024-03-02T07:18:36;100484.47;;;4.82;87.33
84413;BME280;74611;53.106;8.778;2024-03-02T07:21:10;100486.22;;;4.99;88.52
84413;BME280;74611;53.106;8.778;2024-03-02T07:23:36;100488.91;;;5.07;88.73
84413;BME280;74611;53.106;8.778;2024-03-02T07:26:02;100492.09;;;5.02;86.52
84413;BME280;74611;53.106;8.778;2024-03-02T07:28:29;100495.06;;;5.07;87.32
84413;BME280;74611;53.106;8.778;2024-03-02T07:31:01;100499.63;;;5.15;87.68
84413;BME280;74611;53.106;8.778;2024-03-02T07:33:28;100503.13;;;5.15;86.89
84413;BME280;74611;53.106;8.778;2024-03-02T07:35:54;100508.25;;;5.17;87.65
84413;BME280;74611;53.106;8.778;2024-03-02T07:38:20;100510.25;;;5.15;88.01
84413;BME280;74611;53.106;8.778;2024-03-02T07:40:47;100511.91;;;5.16;87.69
84413;BME280;74611;53.106;8.778;2024-03-02T07:43:16;100515.19;;;5.10;86.76
84413;BME280;74611;53.106;8.778;2024-03-02T07:45:42;100511.38;;;5.12;87.72
84413;BME280;74611;53.106;8.778;2024-03-02T07:48:07;100513.59;;;5.25;87.00
84413;BME280;74611;53.106;8.778;2024-03-02T07:50:33;100509.50;;;5.30;87.18
84413;BME280;74611;53.106;8.778;2024-03-02T07:53:01;100501.72;;;5.37;87.62
84413;BME280;74611;53.106;8.778;2024-03-02T07:55:26;100503.34;;;5.30;87.84
84413;BME280;74611;53.106;8.778;2024-03-02T07:57:52;100497.88;;;5.31;86.77
84413;BME280;74611;53.106;8.778;2024-03-02T08:00:18;100498.72;;;5.40;87.23
84413;BME280;74611;53.106;8.778;2024-03-02T08:02:44;100496.59;;;5.44;87.59
84413;BME280;74611;53.106;8.778;2024-03-02T08:05:10;100512.50;;;5.35;87.12
84413;BME280;74611;53.106;8.778;2024-03-02T08:07:35;100523.59;;;5.57;87.15
84413;BME280;74611;53.106;8.778;2024-03-02T08:10:01;100510.75;;;5.52;86.62
84413;BME280;74611;53.106;8.778;2024-03-02T08:12:26;100509.28;;;5.58;86.38
84413;BME280;74611;53.106;8.778;2024-03-02T08:14:52;100506.91;;;5.55;87.26
84413;BME280;74611;53.106;8.778;2024-03-02T08:17:18;100507.09;;;5.53;86.95
84413;BME280;74611;53.106;8.778;2024-03-02T08:19:44;100509.63;;;5.63;86.62
84413;BME280;74611;53.106;8.778;2024-03-02T08:22:09;100518.50;;;5.79;86.37
84413;BME280;74611;53.106;8.778;2024-03-02T08:24:35;100514.31;;;5.77;86.89
84413;BME280;74611;53.106;8.778;2024-03-02T08:27:01;100521.63;;;5.75;86.47
84413;BME280;74611;53.106;8.778;2024-03-02T08:29:30;100521.72;;;5.91;86.27
84413;BME280;74611;53.106;8.778;2024-03-02T08:31:56;100527.22;;;5.97;86.51
84413;BME280;74611;53.106;8.778;2024-03-02T08:34:22;100535.72;;;6.01;86.21
84413;BME280;74611;53.106;8.778;2024-03-02T08:36:48;100539.53;;;5.98;85.88
84413;BME280;74611;53.106;8.778;2024-03-02T08:39:14;100547.03;;;6.03;86.29
84413;BME280;74611;53.106;8.778;2024-03-02T08:41:47;100543.88;;;6.16;86.29
84413;BME280;74611;53.106;8.778;2024-03-02T08:44:13;100543.25;;;6.22;86.14
84413;BME280;74611;53.106;8.778;2024-03-02T08:46:39;100542.28;;;6.39;85.29
84413;BME280;74611;53.106;8.778;2024-03-02T08:49:06;100550.94;;;6.33;85.38
84413;BME280;74611;53.106;8.778;2024-03-02T08:51:32;100555.75;;;6.45;85.59
84413;BME280;74611;53.106;8.778;2024-03-02T08:53:58;100554.28;;;6.59;84.87
84413;BME280;74611;53.106;8.778;2024-03-02T08:56:24;100552.28;;;6.69;85.39
84413;BME280;74611;53.106;8.778;2024-03-02T08:58:50;100559.41;;;6.76;84.66
84413;BME280;74611;53.106;8.778;2024-03-02T09:01:16;100561.59;;;6.89;84.75
84413;BME280;74611;53.106;8.778;2024-03-02T09:03:42;100564.56;;;7.10;84.22
84413;BME280;74611;53.106;8.778;2024-03-02T09:06:12;100574.38;;;7.26;83.59
84413;BME280;74611;53.106;8.778;2024-03-02T09:08:37;100568.38;;;7.32;83.87
84413;BME280;74611;53.106;8.778;2024-03-02T09:11:05;100564.78;;;7.55;83.14
84413;BME280;74611;53.106;8.778;2024-03-02T09:13:32;100561.63;;;7.60;84.13
84413;BME280;74611;53.106;8.778;2024-03-02T09:15:58;100565.56;;;7.72;82.74
84413;BME280;74611;53.106;8.778;2024-03-02T09:18:23;100578.19;;;7.86;82.34
84413;BME280;74611;53.106;8.778;2024-03-02T09:20:49;100562.63;;;7.98;83.08
84413;BME280;74611;53.106;8.778;2024-03-02T09:23:15;100562.41;;;8.07;83.99
84413;BME280;74611;53.106;8.778;2024-03-02T09:25:40;100557.31;;;8.20;81.63
84413;BME280;74611;53.106;8.778;2024-03-02T09:28:06;100564.50;;;8.28;82.56
84413;BME280;74611;53.106;8.778;2024-03-02T09:30:32;100574.72;;;8.47;82.20
84413;BME280;74611;53.106;8.778;2024-03-02T09:32:58;100567.28;;;8.57;80.14
84413;BME280;74611;53.106;8.778;2024-03-02T09:35:24;100565.22;;;8.67;83.42
84413;BME280;74611;53.106;8.778;2024-03-02T09:37:50;100567.63;;;8.77;83.12
84413;BME280;74611;53.106;8.778;2024-03-02T09:40:16;100577.78;;;8.81;79.41
84413;BME280;74611;53.106;8.778;2024-03-02T09:42:42;100576.19;;;8.95;81.78
84413;BME280;74611;53.106;8.778;2024-03-02T09:45:09;100566.34;;;9.10;84.46
84413;BME280;74611;53.106;8.778;2024-03-02T09:47:35;100573.09;;;9.21;79.38
84413;BME280;74611;53.106;8.778;2024-03-02T09:50:01;100575.31;;;9.32;81.13
84413;BME280;74611;53.106;8.778;2024-03-02T09:52:27;100572.41;;;9.41;80.21
84413;BME280;74611;53.106;8.778;2024-03-02T09:54:52;100572.28;;;9.49;77.68
84413;BME280;74611;53.106;8.778;2024-03-02T09:57:19;100578.13;;;9.67;79.17
84413;BME280;74611;53.106;8.778;2024-03-02T09:59:44;100571.72;;;9.83;83.39
84413;BME280;74611;53.106;8.778;2024-03-02T10:02:10;100577.25;;;9.96;77.49
84413;BME280;74611;53.106;8.778;2024-03-02T10:04:36;100578.63;;;10.07;77.23
84413;BME280;74611;53.106;8.778;2024-03-02T10:07:16;100577.03;;;10.27;80.64
84413;BME280;74611;53.106;8.778;2024-03-02T10:09:43;100580.97;;;10.45;76.60
84413;BME280;74611;53.106;8.778;2024-03-02T10:12:10;100576.75;;;10.57;78.43
84413;BME280;74611;53.106;8.778;2024-03-02T10:14:40;100575.47;;;10.75;76.84
84413;BME280;74611;53.106;8.778;2024-03-02T10:17:07;100570.53;;;10.99;84.16
84413;BME280;74611;53.106;8.778;2024-03-02T10:19:33;100582.75;;;11.02;75.27
84413;BME280;74611;53.106;8.778;2024-03-02T10:22:00;100582.44;;;11.18;78.12
84413;BME280;74611;53.106;8.778;2024-03-02T10:24:26;100585.69;;;11.34;77.50
84413;BME280;74611;53.106;8.778;2024-03-02T10:26:52;100586.38;;;11.43;73.13
84413;BME280;74611;53.106;8.778;2024-03-02T10:29:18;100571.09;;;11.71;81.76
84413;BME280;74611;53.106;8.778;2024-03-02T10:31:45;100578.97;;;11.79;77.60
84413;BME280;74611;53.106;8.778;2024-03-02T10:34:12;100578.41;;;11.90;77.51
84413;BME280;74611;53.106;8.778;2024-03-02T10:36:41;100579.34;;;12.10;78.08
84413;BME280;74611;53.106;8.778;2024-03-02T10:39:08;100583.88;;;12.10;68.57
84413;BME280;74611;53.106;8.778;2024-03-02T10:41:35;100580.06;;;12.39;77.56
84413;BME280;74611;53.106;8.778;2024-03-02T10:44:09;100585.81;;;12.36;79.43
84413;BME280;74611;53.106;8.778;2024-03-02T10:46:38;100585.66;;;12.44;68.40
84413;BME280;74611;53.106;8.778;2024-03-02T10:49:05;100581.34;;;12.69;71.67
84413;BME280;74611;53.106;8.778;2024-03-02T10:51:33;100567.94;;;12.95;78.37
84413;BME280;74611;53.106;8.778;2024-03-02T10:53:59;100564.44;;;13.08;82.30
84413;BME280;74611;53.106;8.778;2024-03-02T10:59:32;100574.81;;;13.17;75.93
84413;BME280;74611;53.106;8.778;2024-03-02T11:02:00;100575.81;;;13.16;70.05
84413;BME280;74611;53.106;8.778;2024-03-02T11:04:29;100589.50;;;13.15;61.13
84413;BME280;74611;53.106;8.778;2024-03-02T11:06:59;100581.00;;;13.50;71.93
84413;BME280;74611;53.106;8.778;2024-03-02T11:09:27;100578.00;;;13.91;78.78
84413;BME280;74611;53.106;8.778;2024-03-02T11:12:19;100582.41;;;13.66;65.99
84413;BME280;74611;53.106;8.778;2024-03-02T11:14:45;100584.72;;;13.56;68.69
84413;BME280;74611;53.106;8.778;2024-03-02T11:17:13;100579.50;;;13.68;69.43
84413;BME280;74611;53.106;8.778;2024-03-02T11:19:41;100584.22;;;13.85;71.83
84413;BME280;74611;53.106;8.778;2024-03-02T11:22:08;100581.88;;;14.02;77.10
84413;BME280;74611;53.106;8.778;2024-03-02T11:24:34;100575.19;;;14.17;73.41
84413;BME280;74611;53.106;8.778;2024-03-02T11:27:07;100573.06;;;14.26;76.31
84413;BME280;74611;53.106;8.778;2024-03-02T11:32:22;100582.75;;;14.47;72.84
84413;BME280;74611;53.106;8.778;2024-03-02T11:34:51;100574.94;;;14.70;78.31
84413;BME280;74611;53.106;8.778;2024-03-02T11:37:20;100582.47;;;14.61;75.21
84413;BME280;74611;53.106;8.778;2024-03-02T11:39:48;100579.13;;;14.66;73.51
84413;BME280;74611;53.106;8.778;2024-03-02T11:42:15;100561.56;;;14.81;77.03
84413;BME280;74611;53.106;8.778;2024-03-02T11:44:43;100571.09;;;14.84;72.66
84413;BME280;74611;53.106;8.778;2024-03-02T11:47:12;100564.75;;;14.72;73.24
84413;BME280;74611;53.106;8.778;2024-03-02T11:49:41;100564.78;;;14.65;78.04
84413;BME280;74611;53.106;8.778;2024-03-02T11:52:11;100572.84;;;14.72;68.80
84413;BME280;74611;53.106;8.778;2024-03-02T11:54:38;100568.53;;;14.95;67.12
84413;BME280;74611;53.106;8.778;2024-03-02T11:57:13;100557.56;;;15.15;70.36
84413;BME280;74611;53.106;8.778;2024-03-02T11:59:39;100558.59;;;15.39;76.75
84413;BME280;74611;53.106;8.778;2024-03-02T12:02:06;100554.91;;;15.33;76.82
84413;BME280;74611;53.106;8.778;2024-03-02T12:04:31;100559.91;;;15.30;72.95
84413;BME280;74611;53.106;8.778;2024-03-02T12:07:00;100567.34;;;15.59;74.03
84413;BME280;74611;53.106;8.778;2024-03-02T12:09:29;100567.34;;;15.34;62.17
84413;BME280;74611;53.106;8.778;2024-03-02T12:12:10;100560.22;;;15.64;69.81
84413;BME280;74611;53.106;8.778;2024-03-02T12:14:38;100554.88;;;15.58;74.40
84413;BME280;74611;53.106;8.778;2024-03-02T12:17:05;100561.13;;;15.58;77.22
84413;BME280;74611;53.106;8.778;2024-03-02T12:19:32;100570.41;;;15.38;62.26
84413;BME280;74611;53.106;8.778;2024-03-02T12:21:58;100554.50;;;15.72;73.50
84413;BME280;74611;53.106;8.778;2024-03-02T12:24:26;100561.22;;;15.70;66.19
84413;BME280;74611;53.106;8.778;2024-03-02T12:26:53;100547.84;;;15.93;76.11
84413;BME280;74611;53.106;8.778;2024-03-02T12:29:20;100563.59;;;15.78;59.91
84413;BME280;74611;53.106;8.778;2024-03-02T12:31:48;100554.50;;;15.91;77.92
84413;BME280;74611;53.106;8.778;2024-03-02T12:34:15;100558.66;;;16.11;65.35
84413;BME280;74611;53.106;8.778;2024-03-02T12:36:41;100564.94;;;16.05;62.75
84413;BME280;74611;53.106;8.778;2024-03-02T12:39:10;100559.59;;;16.17;79.21
84413;BME280;74611;53.106;8.778;2024-03-02T12:41:36;100569.91;;;16.26;70.68
84413;BME280;74611;53.106;8.778;2024-03-02T12:44:03;100554.03;;;16.30;80.16
84413;BME280;74611;53.106;8.778;2024-03-02T12:46:29;100560.69;;;16.45;80.52
84413;BME280;74611;53.106;8.778;2024-03-02T12:48:55;100570.59;;;16.33;61.73
84413;BME280;74611;53.106;8.778;2024-03-02T12:51:21;100560.13;;;16.07;67.45
84413;BME280;74611;53.106;8.778;2024-03-02T12:53:53;100568.53;;;16.35;64.66
84413;BME280;74611;53.106;8.778;2024-03-02T12:56:19;100563.75;;;16.49;64.10
84413;BME280;74611;53.106;8.778;2024-03-02T12:58:44;100565.78;;;16.53;61.61
84413;BME280;74611;53.106;8.778;2024-03-02T13:01:10;100567.50;;;16.48;59.03
84413;BME280;74611;53.106;8.778;2024-03-02T13:03:38;100561.97;;;16.25;66.05